CDT,Max TemperatureF,Mean TemperatureF,Min TemperatureF,Max Dew PointF,MeanDew PointF,Min DewpointF,Max Humidity, Mean Humidity, Min Humidity, Max Sea Level PressureIn, Mean Sea Level PressureIn, Min Sea Level PressureIn, Max VisibilityMiles, Mean VisibilityMiles, Min VisibilityMiles, Max Wind SpeedMPH, Mean Wind SpeedMPH, Max Gust SpeedMPH,PrecipitationIn, CloudCover, Events, WindDirDegrees
2012-9-1,93,78,62,65,60,54,78,57,36,30.04,29.98,29.91,10,10,10,14,5,17,0.00,0,,100
2012-9-2,96,78,59,65,62,57,90,65,39,29.98,29.89,29.81,10,10,10,16,8,22,T,0,,142
2012-9-3,87,77,66,68,65,60,87,66,44,29.94,29.87,29.83,10,10,10,21,6,26,0.04,1,Rain,126
2012-9-4,98,79,60,69,63,57,96,59,21,29.90,29.79,29.65,10,10,10,41,5,52,T,1,Rain-Thunderstorm,112
2012-9-5,85,68,50,61,52,39,93,56,14,29.96,29.86,29.73,10,10,10,21,8,28,0.00,0,,348
2012-9-6,90,67,44,57,46,41,86,51,16,30.00,29.89,29.73,10,10,10,22,6,32,0.00,0,,152
2012-9-7,77,63,49,58,50,42,84,57,29,30.14,29.98,29.74,10,10,10,23,13,31,0.03,2,Rain,353
2012-9-8,87,63,39,46,40,36,89,53,16,30.16,30.07,29.93,10,10,10,26,10,35,0.00,0,,315
2012-9-9,77,61,44,48,43,40,80,55,29,30.25,30.17,30.10,10,10,10,9,5,17,0.00,0,,69
2012-9-10,89,68,47,50,46,42,86,55,24,30.10,29.96,29.83,10,10,10,25,12,38,0.00,0,,156
2012-9-11,98,79,59,52,49,46,72,37,13,29.85,29.80,29.74,10,10,8,24,13,35,0.00,0,,173
2012-9-12,80,67,54,53,46,36,97,59,24,30.32,30.12,29.85,10,9,4,28,9,33,0.38,6,Rain,25
2012-9-13,76,62,48,54,49,45,100,76,28,30.42,30.36,30.31,10,7,0,12,4,15,0.00,1,Fog,187
2012-9-14,85,66,47,46,43,38,77,46,16,30.34,30.27,30.19,10,10,10,12,5,16,0.00,0,,209
2012-9-15,84,65,45,57,43,36,90,48,13,30.25,30.15,30.03,10,10,2,20,9,26,0.00,0,,164
2012-9-16,80,66,51,59,56,51,100,71,42,30.03,29.97,29.87,10,9,2,15,7,20,0.00,2,,171
2012-9-17,70,56,41,57,45,33,93,61,28,30.10,30.02,29.91,10,10,10,21,12,29,0.02,4,Rain,4
2012-9-18,73,54,34,40,36,32,97,57,19,30.13,30.04,29.90,10,10,9,12,5,17,0.00,1,,217
2012-9-19,86,65,44,48,38,28,93,45,10,29.99,29.85,29.77,10,10,10,30,12,39,0.00,0,,22
2012-9-20,73,58,42,37,31,27,58,39,20,30.06,30.00,29.92,10,10,10,17,5,23,0.00,2,,326
2012-9-21,75,61,47,40,36,32,59,40,21,29.97,29.87,29.80,10,10,10,26,12,35,0.00,1,,311
2012-9-22,64,48,32,35,28,23,64,44,23,30.32,30.23,30.00,10,10,10,24,10,30,0.00,0,,337
2012-9-23,68,47,25,31,28,24,96,54,17,30.40,30.30,30.20,10,10,10,8,3,14,0.00,0,,119
2012-9-24,79,59,39,42,37,31,79,49,14,30.19,30.00,29.83,10,10,9,17,7,22,0.00,0,,150
2012-9-25,86,63,39,47,40,36,96,58,19,29.94,29.86,29.82,10,10,10,15,3,,0.00,0,,51
2012-9-26,77,58,38,36,30,19,67,40,12,30.18,30.08,29.96,10,10,10,18,7,23,0.00,0,,22
2012-9-27,77,53,29,35,30,24,85,52,18,30.25,30.19,30.13,10,10,10,12,2,15,0.00,0,,20
2012-9-28,78,54,30,36,30,24,92,53,14,30.24,30.17,30.12,10,10,3,9,2,14,0.00,0,,258
2012-9-29,82,59,36,45,37,30,76,50,23,30.19,30.11,30.03,10,10,10,9,3,14,0.00,0,,146
2012-9-30,83,61,39,44,40,34,82,52,21,30.04,29.98,29.91,10,10,9,8,1,12,0.00,0,,175